sensor_id;sensor_type;location;lat;lon;timestamp;temperature;humidity
14471;DHT22;7321;50.802;4.336;2023-12-04T00:01:34;3.70;99.90
14471;DHT22;7321;50.802;4.336;2023-12-04T00:04:00;3.70;99.90
14471;DHT22;7321;50.802;4.336;2023-12-04T00:06:26;3.60;99.90
14471;DHT22;7321;50.802;4.336;2023-12-04T00:08:52;3.80;99.90
14471;DHT22;7321;50.802;4.336;2023-12-04T00:11:18;3.70;99.90
14471;DHT22;7321;50.802;4.336;2023-12-04T00:13:44;3.80;99.90
14471;DHT22;7321;50.802;4.336;2023-12-04T00:16:10;3.80;99.90
14471;DHT22;7321;50.802;4.336;2023-12-04T00:18:35;4.00;99.90
14471;DHT22;7321;50.802;4.336;2023-12-04T00:21:01;3.80;99.90
14471;DHT22;7321;50.802;4.336;2023-12-04T00:23:27;3.70;99.90
14471;DHT22;7321;50.802;4.336;2023-12-04T00:25:54;3.60;99.90
14471;DHT22;7321;50.802;4.336;2023-12-04T00:28:21;3.60;99.90
14471;DHT22;7321;50.802;4.336;2023-12-04T00:30:46;3.60;99.90
14471;DHT22;7321;50.802;4.336;2023-12-04T00:33:12;3.70;99.90
14471;DHT22;7321;50.802;4.336;2023-12-04T00:35:38;3.70;99.90
14471;DHT22;7321;50.802;4.336;2023-12-04T00:38:04;3.70;99.90
14471;DHT22;7321;50.802;4.336;2023-12-04T00:40:30;3.60;99.90
14471;DHT22;7321;50.802;4.336;2023-12-04T00:42:56;3.60;99.90
14471;DHT22;7321;50.802;4.336;2023-12-04T00:45:21;3.60;99.90
14471;DHT22;7321;50.802;4.336;2023-12-04T00:47:47;3.60;99.90
14471;DHT22;7321;50.802;4.336;2023-12-04T00:50:13;3.60;99.90
14471;DHT22;7321;50.802;4.336;2023-12-04T00:52:39;3.50;99.90
14471;DHT22;7321;50.802;4.336;2023-12-04T00:55:05;3.40;99.90
14471;DHT22;7321;50.802;4.336;2023-12-04T00:57:31;3.50;99.90
14471;DHT22;7321;50.802;4.336;2023-12-04T00:59:57;3.60;99.90
14471;DHT22;7321;50.802;4.336;2023-12-04T01:02:23;3.60;99.90
14471;DHT22;7321;50.802;4.336;2023-12-04T01:04:49;3.70;99.90
14471;DHT22;7321;50.802;4.336;2023-12-04T01:07:15;3.50;99.90
14471;DHT22;7321;50.802;4.336;2023-12-04T01:09:41;3.60;99.90
14471;DHT22;7321;50.802;4.336;2023-12-04T01:12:07;3.50;99.90
14471;DHT22;7321;50.802;4.336;2023-12-04T01:14:33;3.50;99.90
14471;DHT22;7321;50.802;4.336;2023-12-04T01:16:59;3.70;99.90
14471;DHT22;7321;50.802;4.336;2023-12-04T01:19:24;3.70;99.90
14471;DHT22;7321;50.802;4.336;2023-12-04T01:21:50;3.70;99.90
14471;DHT22;7321;50.802;4.336;2023-12-04T01:24:16;3.70;99.90
14471;DHT22;7321;50.802;4.336;2023-12-04T01:26:42;3.70;99.90
14471;DHT22;7321;50.802;4.336;2023-12-04T01:29:08;3.60;99.90
14471;DHT22;7321;50.802;4.336;2023-12-04T01:31:34;3.50;99.90
14471;DHT22;7321;50.802;4.336;2023-12-04T01:34:00;3.60;99.90
14471;DHT22;7321;50.802;4.336;2023-12-04T01:36:26;3.70;99.90
14471;DHT22;7321;50.802;4.336;2023-12-04T01:38:52;3.60;99.90
14471;DHT22;7321;50.802;4.336;2023-12-04T01:41:18;3.60;99.90
14471;DHT22;7321;50.802;4.336;2023-12-04T01:43:44;3.60;99.90
14471;DHT22;7321;50.802;4.336;2023-12-04T01:46:10;3.50;99.90
14471;DHT22;7321;50.802;4.336;2023-12-04T01:48:36;3.50;99.90
14471;DHT22;7321;50.802;4.336;2023-12-04T01:51:06;3.40;99.90
14471;DHT22;7321;50.802;4.336;2023-12-04T01:53:35;3.50;99.90
14471;DHT22;7321;50.802;4.336;2023-12-04T01:56:02;3.50;99.90
14471;DHT22;7321;50.802;4.336;2023-12-04T01:58:27;3.50;99.90
14471;DHT22;7321;50.802;4.336;2023-12-04T02:00:53;3.40;99.90
14471;DHT22;7321;50.802;4.336;2023-12-04T02:03:19;3.40;99.90
14471;DHT22;7321;50.802;4.336;2023-12-04T02:05:46;3.40;99.90
14471;DHT22;7321;50.802;4.336;2023-12-04T02:08:12;3.40;99.90
14471;DHT22;7321;50.802;4.336;2023-12-04T02:10:38;3.40;99.90
14471;DHT22;7321;50.802;4.336;2023-12-04T02:13:05;3.50;99.90
14471;DHT22;7321;50.802;4.336;2023-12-04T02:15:31;3.50;99.90
14471;DHT22;7321;50.802;4.336;2023-12-04T02:17:57;3.50;99.90
14471;DHT22;7321;50.802;4.336;2023-12-04T02:20:31;3.50;99.90
14471;DHT22;7321;50.802;4.336;2023-12-04T02:22:58;3.50;99.90
14471;DHT22;7321;50.802;4.336;2023-12-04T02:25:23;3.40;99.90
14471;DHT22;7321;50.802;4.336;2023-12-04T02:27:50;3.60;99.90
14471;DHT22;7321;50.802;4.336;2023-12-04T02:30:21;3.60;99.90
14471;DHT22;7321;50.802;4.336;2023-12-04T02:32:48;3.60;99.90
14471;DHT22;7321;50.802;4.336;2023-12-04T02:35:15;3.40;99.90
14471;DHT22;7321;50.802;4.336;2023-12-04T02:37:42;3.40;99.90
14471;DHT22;7321;50.802;4.336;2023-12-04T02:40:10;3.50;99.90
14471;DHT22;7321;50.802;4.336;2023-12-04T02:42:36;3.40;99.90
14471;DHT22;7321;50.802;4.336;2023-12-04T02:45:02;3.50;99.90
14471;DHT22;7321;50.802;4.336;2023-12-04T02:47:28;3.60;99.90
14471;DHT22;7321;50.802;4.336;2023-12-04T02:49:54;3.50;99.90
14471;DHT22;7321;50.802;4.336;2023-12-04T02:52:20;3.50;99.90
14471;DHT22;7321;50.802;4.336;2023-12-04T02:54:45;3.40;99.90
14471;DHT22;7321;50.802;4.336;2023-12-04T02:57:11;3.50;99.90
14471;DHT22;7321;50.802;4.336;2023-12-04T02:59:37;3.50;99.90
14471;DHT22;7321;50.802;4.336;2023-12-04T03:02:03;3.50;99.90
14471;DHT22;7321;50.802;4.336;2023-12-04T03:04:31;3.50;99.90
14471;DHT22;7321;50.802;4.336;2023-12-04T03:06:57;3.60;99.90
14471;DHT22;7321;50.802;4.336;2023-12-04T03:09:23;3.60;99.90
14471;DHT22;7321;50.802;4.336;2023-12-04T03:11:49;3.50;99.90
14471;DHT22;7321;50.802;4.336;2023-12-04T03:14:15;3.50;99.90
14471;DHT22;7321;50.802;4.336;2023-12-04T03:16:41;3.60;99.90
14471;DHT22;7321;50.802;4.336;2023-12-04T03:19:06;3.60;99.90
14471;DHT22;7321;50.802;4.336;2023-12-04T03:21:32;3.60;99.90
14471;DHT22;7321;50.802;4.336;2023-12-04T03:23:58;3.60;99.90
14471;DHT22;7321;50.802;4.336;2023-12-04T03:26:24;3.60;99.90
14471;DHT22;7321;50.802;4.336;2023-12-04T03:28:50;3.60;99.90
14471;DHT22;7321;50.802;4.336;2023-12-04T03:31:16;3.60;99.90
14471;DHT22;7321;50.802;4.336;2023-12-04T03:33:41;3.50;99.90
14471;DHT22;7321;50.802;4.336;2023-12-04T03:36:08;3.60;99.90
14471;DHT22;7321;50.802;4.336;2023-12-04T03:38:34;3.50;99.90
14471;DHT22;7321;50.802;4.336;2023-12-04T03:40:59;3.50;99.90
14471;DHT22;7321;50.802;4.336;2023-12-04T03:43:25;3.50;99.90
14471;DHT22;7321;50.802;4.336;2023-12-04T03:45:51;3.50;99.90
14471;DHT22;7321;50.802;4.336;2023-12-04T03:48:17;3.50;99.90
14471;DHT22;7321;50.802;4.336;2023-12-04T03:50:43;3.50;99.90
14471;DHT22;7321;50.802;4.336;2023-12-04T03:53:09;3.50;99.90
14471;DHT22;7321;50.802;4.336;2023-12-04T03:55:34;3.50;99.90
14471;DHT22;7321;50.802;4.336;2023-12-04T03:58:00;3.50;99.90
14471;DHT22;7321;50.802;4.336;2023-12-04T04:00:26;3.40;99.90
14471;DHT22;7321;50.802;4.336;2023-12-04T04:02:52;3.50;99.90
14471;DHT22;7321;50.802;4.336;2023-12-04T04:05:18;3.40;99.90
14471;DHT22;7321;50.802;4.336;2023-12-04T04:07:44;3.40;99.90
14471;DHT22;7321;50.802;4.336;2023-12-04T04:10:10;3.40;99.90
14471;DHT22;7321;50.802;4.336;2023-12-04T04:12:36;3.50;99.90
14471;DHT22;7321;50.802;4.336;2023-12-04T04:15:02;3.50;99.90
14471;DHT22;7321;50.802;4.336;2023-12-04T04:17:28;3.60;99.90
14471;DHT22;7321;50.802;4.336;2023-12-04T04:19:55;3.70;99.90
14471;DHT22;7321;50.802;4.336;2023-12-04T04:22:21;3.80;99.90
14471;DHT22;7321;50.802;4.336;2023-12-04T04:24:48;3.80;99.90
14471;DHT22;7321;50.802;4.336;2023-12-04T04:27:14;3.80;99.90
14471;DHT22;7321;50.802;4.336;2023-12-04T04:29:41;3.80;99.90
14471;DHT22;7321;50.802;4.336;2023-12-04T04:32:06;3.80;99.90
14471;DHT22;7321;50.802;4.336;2023-12-04T04:34:33;3.70;99.90
14471;DHT22;7321;50.802;4.336;2023-12-04T04:36:59;3.80;99.90
14471;DHT22;7321;50.802;4.336;2023-12-04T04:39:24;3.90;99.90
14471;DHT22;7321;50.802;4.336;2023-12-04T04:41:50;3.80;99.90
14471;DHT22;7321;50.802;4.336;2023-12-04T04:44:16;3.70;99.90
14471;DHT22;7321;50.802;4.336;2023-12-04T04:46:42;3.70;99.90
14471;DHT22;7321;50.802;4.336;2023-12-04T04:49:08;3.60;99.90
14471;DHT22;7321;50.802;4.336;2023-12-04T04:51:34;3.60;99.90
14471;DHT22;7321;50.802;4.336;2023-12-04T04:54:00;3.60;99.90
14471;DHT22;7321;50.802;4.336;2023-12-04T04:56:27;3.70;99.90
14471;DHT22;7321;50.802;4.336;2023-12-04T04:58:53;3.70;99.90
14471;DHT22;7321;50.802;4.336;2023-12-04T05:01:19;3.60;99.90
14471;DHT22;7321;50.802;4.336;2023-12-04T05:03:44;3.60;99.90
14471;DHT22;7321;50.802;4.336;2023-12-04T05:06:10;3.60;99.90
14471;DHT22;7321;50.802;4.336;2023-12-04T05:08:36;3.60;99.90
14471;DHT22;7321;50.802;4.336;2023-12-04T05:11:02;3.60;99.90
14471;DHT22;7321;50.802;4.336;2023-12-04T05:13:28;3.60;99.90
14471;DHT22;7321;50.802;4.336;2023-12-04T05:15:54;3.70;99.90
14471;DHT22;7321;50.802;4.336;2023-12-04T05:18:19;3.70;99.90
14471;DHT22;7321;50.802;4.336;2023-12-04T05:20:45;3.60;99.90
14471;DHT22;7321;50.802;4.336;2023-12-04T05:23:11;3.60;99.90
14471;DHT22;7321;50.802;4.336;2023-12-04T05:25:37;3.60;99.90
14471;DHT22;7321;50.802;4.336;2023-12-04T05:28:04;3.60;99.90
14471;DHT22;7321;50.802;4.336;2023-12-04T05:30:30;3.60;99.90
14471;DHT22;7321;50.802;4.336;2023-12-04T05:32:56;3.60;99.90
14471;DHT22;7321;50.802;4.336;2023-12-04T05:35:22;3.70;99.90
14471;DHT22;7321;50.802;4.336;2023-12-04T05:37:48;3.70;99.90
14471;DHT22;7321;50.802;4.336;2023-12-04T05:40:14;3.70;99.90
14471;DHT22;7321;50.802;4.336;2023-12-04T05:42:40;3.80;99.90
14471;DHT22;7321;50.802;4.336;2023-12-04T05:45:06;3.80;99.90
14471;DHT22;7321;50.802;4.336;2023-12-04T05:47:33;3.90;99.90
14471;DHT22;7321;50.802;4.336;2023-12-04T05:50:00;3.90;99.90
14471;DHT22;7321;50.802;4.336;2023-12-04T05:52:26;3.80;99.90
14471;DHT22;7321;50.802;4.336;2023-12-04T05:54:52;3.80;99.90
14471;DHT22;7321;50.802;4.336;2023-12-04T05:57:18;3.80;99.90
14471;DHT22;7321;50.802;4.336;2023-12-04T05:59:43;3.80;99.90
14471;DHT22;7321;50.802;4.336;2023-12-04T06:02:09;3.80;99.90
14471;DHT22;7321;50.802;4.336;2023-12-04T06:04:35;3.80;99.90
14471;DHT22;7321;50.802;4.336;2023-12-04T06:07:01;3.80;99.90
14471;DHT22;7321;50.802;4.336;2023-12-04T06:09:27;3.80;99.90
14471;DHT22;7321;50.802;4.336;2023-12-04T06:11:53;3.90;99.90
14471;DHT22;7321;50.802;4.336;2023-12-04T06:14:19;3.90;99.90
14471;DHT22;7321;50.802;4.336;2023-12-04T06:16:44;3.80;99.90
14471;DHT22;7321;50.802;4.336;2023-12-04T06:19:10;3.80;99.90
14471;DHT22;7321;50.802;4.336;2023-12-04T06:21:36;3.80;99.90
14471;DHT22;7321;50.802;4.336;2023-12-04T06:24:02;3.80;99.90
14471;DHT22;7321;50.802;4.336;2023-12-04T06:26:30;3.70;99.90
14471;DHT22;7321;50.802;4.336;2023-12-04T06:28:57;3.80;99.90
14471;DHT22;7321;50.802;4.336;2023-12-04T06:31:23;3.80;99.90
14471;DHT22;7321;50.802;4.336;2023-12-04T06:33:49;3.80;99.90
14471;DHT22;7321;50.802;4.336;2023-12-04T06:36:15;3.80;99.90
14471;DHT22;7321;50.802;4.336;2023-12-04T06:38:44;3.80;99.90
14471;DHT22;7321;50.802;4.336;2023-12-04T06:41:12;3.70;99.90
14471;DHT22;7321;50.802;4.336;2023-12-04T06:43:39;3.70;99.90
14471;DHT22;7321;50.802;4.336;2023-12-04T06:46:05;3.70;99.90
14471;DHT22;7321;50.802;4.336;2023-12-04T06:48:31;3.60;99.90
14471;DHT22;7321;50.802;4.336;2023-12-04T06:50:58;3.70;99.90
14471;DHT22;7321;50.802;4.336;2023-12-04T06:53:24;3.70;99.90
14471;DHT22;7321;50.802;4.336;2023-12-04T06:55:50;3.70;99.90
14471;DHT22;7321;50.802;4.336;2023-12-04T06:58:16;3.70;99.90
14471;DHT22;7321;50.802;4.336;2023-12-04T07:00:41;3.60;99.90
14471;DHT22;7321;50.802;4.336;2023-12-04T07:03:07;3.70;99.90
14471;DHT22;7321;50.802;4.336;2023-12-04T07:05:33;3.80;99.90
14471;DHT22;7321;50.802;4.336;2023-12-04T07:07:59;3.80;99.90
14471;DHT22;7321;50.802;4.336;2023-12-04T07:10:25;3.80;99.90
14471;DHT22;7321;50.802;4.336;2023-12-04T07:12:51;3.80;99.90
14471;DHT22;7321;50.802;4.336;2023-12-04T07:15:16;3.90;99.90
14471;DHT22;7321;50.802;4.336;2023-12-04T07:17:45;3.90;99.90
14471;DHT22;7321;50.802;4.336;2023-12-04T07:20:11;3.80;99.90
14471;DHT22;7321;50.802;4.336;2023-12-04T07:22:37;3.80;99.90
14471;DHT22;7321;50.802;4.336;2023-12-04T07:25:03;3.80;99.90
14471;DHT22;7321;50.802;4.336;2023-12-04T07:27:29;3.80;99.90
14471;DHT22;7321;50.802;4.336;2023-12-04T07:29:56;3.90;99.90
14471;DHT22;7321;50.802;4.336;2023-12-04T07:32:22;3.90;99.90
14471;DHT22;7321;50.802;4.336;2023-12-04T07:34:48;4.00;99.90
14471;DHT22;7321;50.802;4.336;2023-12-04T07:37:13;3.90;99.90
14471;DHT22;7321;50.802;4.336;2023-12-04T07:39:40;3.90;99.90
14471;DHT22;7321;50.802;4.336;2023-12-04T07:42:08;3.80;99.90
14471;DHT22;7321;50.802;4.336;2023-12-04T07:44:35;3.80;99.90
14471;DHT22;7321;50.802;4.336;2023-12-04T07:47:01;3.80;99.90
14471;DHT22;7321;50.802;4.336;2023-12-04T07:49:27;3.80;99.90
14471;DHT22;7321;50.802;4.336;2023-12-04T07:51:53;3.80;99.90
14471;DHT22;7321;50.802;4.336;2023-12-04T07:54:19;3.80;99.90
14471;DHT22;7321;50.802;4.336;2023-12-04T07:56:44;3.80;99.90
14471;DHT22;7321;50.802;4.336;2023-12-04T07:59:10;3.80;99.90
14471;DHT22;7321;50.802;4.336;2023-12-04T08:01:36;3.70;99.90
14471;DHT22;7321;50.802;4.336;2023-12-04T08:04:02;3.70;99.90
14471;DHT22;7321;50.802;4.336;2023-12-04T08:06:28;3.70;99.90
14471;DHT22;7321;50.802;4.336;2023-12-04T08:08:54;3.70;99.90
14471;DHT22;7321;50.802;4.336;2023-12-04T08:11:21;3.70;99.90
14471;DHT22;7321;50.802;4.336;2023-12-04T08:13:46;3.70;99.90
14471;DHT22;7321;50.802;4.336;2023-12-04T08:16:13;3.70;99.90
14471;DHT22;7321;50.802;4.336;2023-12-04T08:18:40;3.70;99.90
14471;DHT22;7321;50.802;4.336;2023-12-04T08:21:07;3.80;99.90
14471;DHT22;7321;50.802;4.336;2023-12-04T08:23:33;3.90;99.90
14471;DHT22;7321;50.802;4.336;2023-12-04T08:25:59;3.90;99.90
14471;DHT22;7321;50.802;4.336;2023-12-04T08:28:25;3.90;99.90
14471;DHT22;7321;50.802;4.336;2023-12-04T08:30:51;3.90;99.90
14471;DHT22;7321;50.802;4.336;2023-12-04T08:33:16;3.90;99.90
14471;DHT22;7321;50.802;4.336;2023-12-04T08:35:46;3.90;99.90
14471;DHT22;7321;50.802;4.336;2023-12-04T08:38:13;3.80;99.90
14471;DHT22;7321;50.802;4.336;2023-12-04T08:40:38;3.90;99.90
14471;DHT22;7321;50.802;4.336;2023-12-04T08:43:05;3.80;99.90
14471;DHT22;7321;50.802;4.336;2023-12-04T08:45:31;3.80;99.90
14471;DHT22;7321;50.802;4.336;2023-12-04T08:47:57;3.80;99.90
14471;DHT22;7321;50.802;4.336;2023-12-04T08:50:22;3.90;99.90
14471;DHT22;7321;50.802;4.336;2023-12-04T08:52:50;3.90;99.90
14471;DHT22;7321;50.802;4.336;2023-12-04T08:55:17;4.00;99.90
14471;DHT22;7321;50.802;4.336;2023-12-04T08:57:43;4.00;99.90
14471;DHT22;7321;50.802;4.336;2023-12-04T09:00:09;3.90;99.90
14471;DHT22;7321;50.802;4.336;2023-12-04T09:02:35;3.90;99.90
14471;DHT22;7321;50.802;4.336;2023-12-04T09:05:01;3.80;99.90
14471;DHT22;7321;50.802;4.336;2023-12-04T09:07:27;3.80;99.90
14471;DHT22;7321;50.802;4.336;2023-12-04T09:09:53;3.80;99.90
14471;DHT22;7321;50.802;4.336;2023-12-04T09:12:19;3.80;99.90
14471;DHT22;7321;50.802;4.336;2023-12-04T09:14:45;3.70;99.90
14471;DHT22;7321;50.802;4.336;2023-12-04T09:17:11;3.70;99.90
14471;DHT22;7321;50.802;4.336;2023-12-04T09:19:37;3.70;99.90
14471;DHT22;7321;50.802;4.336;2023-12-04T09:22:02;3.80;99.90
14471;DHT22;7321;50.802;4.336;2023-12-04T09:24:28;3.90;99.90
14471;DHT22;7321;50.802;4.336;2023-12-04T09:26:56;3.80;99.90
14471;DHT22;7321;50.802;4.336;2023-12-04T09:29:22;3.90;99.90
14471;DHT22;7321;50.802;4.336;2023-12-04T09:31:51;3.80;99.90
14471;DHT22;7321;50.802;4.336;2023-12-04T09:34:17;3.80;99.90
14471;DHT22;7321;50.802;4.336;2023-12-04T09:36:43;3.70;99.90
14471;DHT22;7321;50.802;4.336;2023-12-04T09:39:09;3.70;99.90
14471;DHT22;7321;50.802;4.336;2023-12-04T09:41:37;3.70;99.90
14471;DHT22;7321;50.802;4.336;2023-12-04T09:44:03;3.60;99.90
14471;DHT22;7321;50.802;4.336;2023-12-04T09:46:29;3.50;99.90
14471;DHT22;7321;50.802;4.336;2023-12-04T09:48:56;3.50;99.90
14471;DHT22;7321;50.802;4.336;2023-12-04T09:51:24;3.50;99.90
14471;DHT22;7321;50.802;4.336;2023-12-04T09:53:51;3.50;99.90
14471;DHT22;7321;50.802;4.336;2023-12-04T09:56:18;3.50;99.90
14471;DHT22;7321;50.802;4.336;2023-12-04T09:58:45;3.40;99.90
14471;DHT22;7321;50.802;4.336;2023-12-04T10:01:12;3.30;99.90
14471;DHT22;7321;50.802;4.336;2023-12-04T10:03:38;3.20;99.90
14471;DHT22;7321;50.802;4.336;2023-12-04T10:06:06;3.10;99.90
14471;DHT22;7321;50.802;4.336;2023-12-04T10:08:33;3.00;99.90
14471;DHT22;7321;50.802;4.336;2023-12-04T10:10:59;3.10;99.90
14471;DHT22;7321;50.802;4.336;2023-12-04T10:13:27;3.10;99.90
14471;DHT22;7321;50.802;4.336;2023-12-04T10:15:53;3.00;99.90
14471;DHT22;7321;50.802;4.336;2023-12-04T10:18:30;3.00;99.90
14471;DHT22;7321;50.802;4.336;2023-12-04T10:20:57;3.00;99.90
14471;DHT22;7321;50.802;4.336;2023-12-04T10:23:41;2.90;99.90
14471;DHT22;7321;50.802;4.336;2023-12-04T10:26:07;3.10;99.90
14471;DHT22;7321;50.802;4.336;2023-12-04T10:28:34;3.20;99.90
14471;DHT22;7321;50.802;4.336;2023-12-04T10:31:01;3.10;99.90
14471;DHT22;7321;50.802;4.336;2023-12-04T10:33:28;3.30;99.90
14471;DHT22;7321;50.802;4.336;2023-12-04T10:35:55;3.30;99.90
14471;DHT22;7321;50.802;4.336;2023-12-04T10:38:21;3.30;99.90
14471;DHT22;7321;50.802;4.336;2023-12-04T10:40:49;3.30;99.90
14471;DHT22;7321;50.802;4.336;2023-12-04T10:45:43;3.30;99.90
14471;DHT22;7321;50.802;4.336;2023-12-04T10:48:11;3.30;99.90
14471;DHT22;7321;50.802;4.336;2023-12-04T10:50:39;3.30;99.90
14471;DHT22;7321;50.802;4.336;2023-12-04T10:53:15;3.40;99.90
14471;DHT22;7321;50.802;4.336;2023-12-04T10:55:42;3.40;99.90
14471;DHT22;7321;50.802;4.336;2023-12-04T10:58:12;3.50;99.90
14471;DHT22;7321;50.802;4.336;2023-12-04T11:00:47;3.50;99.90
14471;DHT22;7321;50.802;4.336;2023-12-04T11:03:21;3.60;99.90
14471;DHT22;7321;50.802;4.336;2023-12-04T11:06:00;3.70;99.90
14471;DHT22;7321;50.802;4.336;2023-12-04T11:08:29;3.70;99.90
14471;DHT22;7321;50.802;4.336;2023-12-04T11:11:05;3.80;99.90
14471;DHT22;7321;50.802;4.336;2023-12-04T11:13:41;3.80;99.90
14471;DHT22;7321;50.802;4.336;2023-12-04T11:16:12;3.90;99.90
14471;DHT22;7321;50.802;4.336;2023-12-04T11:18:51;3.90;99.90
14471;DHT22;7321;50.802;4.336;2023-12-04T11:21:19;3.90;99.90
14471;DHT22;7321;50.802;4.336;2023-12-04T11:23:45;3.80;99.90
14471;DHT22;7321;50.802;4.336;2023-12-04T11:26:12;3.90;99.90
14471;DHT22;7321;50.802;4.336;2023-12-04T11:28:39;3.90;99.90
14471;DHT22;7321;50.802;4.336;2023-12-04T11:31:06;3.90;99.90
14471;DHT22;7321;50.802;4.336;2023-12-04T11:33:37;3.90;99.90
14471;DHT22;7321;50.802;4.336;2023-12-04T11:36:11;3.80;99.90
14471;DHT22;7321;50.802;4.336;2023-12-04T11:38:38;3.80;99.90
14471;DHT22;7321;50.802;4.336;2023-12-04T11:43:42;3.80;99.90
14471;DHT22;7321;50.802;4.336;2023-12-04T11:46:11;3.80;99.90
14471;DHT22;7321;50.802;4.336;2023-12-04T11:48:40;3.90;99.90
14471;DHT22;7321;50.802;4.336;2023-12-04T11:51:08;4.00;99.90
14471;DHT22;7321;50.802;4.336;2023-12-04T11:53:38;3.90;99.90
14471;DHT22;7321;50.802;4.336;2023-12-04T11:56:10;4.00;99.90
14471;DHT22;7321;50.802;4.336;2023-12-04T11:58:45;4.00;99.90
14471;DHT22;7321;50.802;4.336;2023-12-04T12:01:12;4.00;99.90
14471;DHT22;7321;50.802;4.336;2023-12-04T12:03:38;4.00;99.90
14471;DHT22;7321;50.802;4.336;2023-12-04T12:06:05;3.90;99.90
14471;DHT22;7321;50.802;4.336;2023-12-04T12:08:31;3.90;99.90
14471;DHT22;7321;50.802;4.336;2023-12-04T12:10:57;4.00;99.90
14471;DHT22;7321;50.802;4.336;2023-12-04T12:13:23;3.90;99.90
14471;DHT22;7321;50.802;4.336;2023-12-04T12:15:52;4.00;99.90
14471;DHT22;7321;50.802;4.336;2023-12-04T12:18:18;4.10;99.90
14471;DHT22;7321;50.802;4.336;2023-12-04T12:20:47;4.20;99.90
14471;DHT22;7321;50.802;4.336;2023-12-04T12:23:13;4.20;99.90
14471;DHT22;7321;50.802;4.336;2023-12-04T12:25:39;4.20;99.90
14471;DHT22;7321;50.802;4.336;2023-12-04T12:28:05;4.20;99.90
14471;DHT22;7321;50.802;4.336;2023-12-04T12:30:32;4.30;99.90
14471;DHT22;7321;50.802;4.336;2023-12-04T12:32:58;4.30;99.90
14471;DHT22;7321;50.802;4.336;2023-12-04T12:35:24;4.40;99.90
14471;DHT22;7321;50.802;4.336;2023-12-04T12:37:50;4.40;99.90
14471;DHT22;7321;50.802;4.336;2023-12-04T12:40:23;4.50;99.90
14471;DHT22;7321;50.802;4.336;2023-12-04T12:42:49;4.50;99.90
14471;DHT22;7321;50.802;4.336;2023-12-04T12:45:17;4.60;99.90
14471;DHT22;7321;50.802;4.336;2023-12-04T12:47:43;4.60;99.90
14471;DHT22;7321;50.802;4.336;2023-12-04T12:50:09;4.60;99.90
14471;DHT22;7321;50.802;4.336;2023-12-04T12:52:39;4.50;99.90
14471;DHT22;7321;50.802;4.336;2023-12-04T12:55:06;4.50;99.90
14471;DHT22;7321;50.802;4.336;2023-12-04T12:57:32;4.50;99.90
14471;DHT22;7321;50.802;4.336;2023-12-04T12:59:58;4.50;99.90
14471;DHT22;7321;50.802;4.336;2023-12-04T13:02:24;4.60;99.90
14471;DHT22;7321;50.802;4.336;2023-12-04T13:04:50;4.40;99.90
14471;DHT22;7321;50.802;4.336;2023-12-04T13:07:16;4.60;99.90
14471;DHT22;7321;50.802;4.336;2023-12-04T13:09:43;4.60;99.90
14471;DHT22;7321;50.802;4.336;2023-12-04T13:12:09;4.60;99.90
14471;DHT22;7321;50.802;4.336;2023-12-04T13:14:35;4.60;99.90
14471;DHT22;7321;50.802;4.336;2023-12-04T13:17:02;4.80;99.90
14471;DHT22;7321;50.802;4.336;2023-12-04T13:19:28;4.90;99.90
14471;DHT22;7321;50.802;4.336;2023-12-04T13:21:54;5.00;99.90
14471;DHT22;7321;50.802;4.336;2023-12-04T13:24:20;5.00;99.90
14471;DHT22;7321;50.802;4.336;2023-12-04T13:26:45;5.10;99.90
14471;DHT22;7321;50.802;4.336;2023-12-04T13:29:12;5.00;99.90
14471;DHT22;7321;50.802;4.336;2023-12-04T13:31:41;5.30;99.90
14471;DHT22;7321;50.802;4.336;2023-12-04T13:34:07;5.30;99.90
14471;DHT22;7321;50.802;4.336;2023-12-04T13:36:34;5.30;99.90
14471;DHT22;7321;50.802;4.336;2023-12-04T13:39:00;5.30;99.90
14471;DHT22;7321;50.802;4.336;2023-12-04T13:41:26;5.20;99.90
14471;DHT22;7321;50.802;4.336;2023-12-04T13:44:10;5.10;99.90
14471;DHT22;7321;50.802;4.336;2023-12-04T13:46:39;5.20;99.90
14471;DHT22;7321;50.802;4.336;2023-12-04T13:49:05;5.40;99.90
14471;DHT22;7321;50.802;4.336;2023-12-04T13:51:31;5.50;99.90
14471;DHT22;7321;50.802;4.336;2023-12-04T13:53:57;5.30;99.90
14471;DHT22;7321;50.802;4.336;2023-12-04T13:56:34;5.40;99.90
14471;DHT22;7321;50.802;4.336;2023-12-04T13:59:18;5.50;99.90
14471;DHT22;7321;50.802;4.336;2023-12-04T14:01:46;5.50;99.90
14471;DHT22;7321;50.802;4.336;2023-12-04T14:04:12;5.50;99.90
14471;DHT22;7321;50.802;4.336;2023-12-04T14:06:38;5.50;99.90
14471;DHT22;7321;50.802;4.336;2023-12-04T14:09:04;5.50;99.90
14471;DHT22;7321;50.802;4.336;2023-12-04T14:11:36;5.60;99.90
14471;DHT22;7321;50.802;4.336;2023-12-04T14:14:02;5.60;99.90
14471;DHT22;7321;50.802;4.336;2023-12-04T14:16:30;5.60;99.90
14471;DHT22;7321;50.802;4.336;2023-12-04T14:18:56;5.50;99.90
14471;DHT22;7321;50.802;4.336;2023-12-04T14:21:22;5.50;99.90
14471;DHT22;7321;50.802;4.336;2023-12-04T14:23:48;5.50;99.90
14471;DHT22;7321;50.802;4.336;2023-12-04T14:26:14;5.60;99.90
14471;DHT22;7321;50.802;4.336;2023-12-04T14:28:40;5.70;99.90
14471;DHT22;7321;50.802;4.336;2023-12-04T14:31:06;5.70;99.90
14471;DHT22;7321;50.802;4.336;2023-12-04T14:33:33;5.50;99.90
14471;DHT22;7321;50.802;4.336;2023-12-04T14:35:59;5.60;99.90
14471;DHT22;7321;50.802;4.336;2023-12-04T14:38:24;5.60;99.90
14471;DHT22;7321;50.802;4.336;2023-12-04T14:40:50;5.60;99.90
14471;DHT22;7321;50.802;4.336;2023-12-04T14:43:16;5.60;99.90
14471;DHT22;7321;50.802;4.336;2023-12-04T14:45:42;5.40;99.90
14471;DHT22;7321;50.802;4.336;2023-12-04T14:48:08;5.40;99.90
14471;DHT22;7321;50.802;4.336;2023-12-04T14:50:34;5.50;99.90
14471;DHT22;7321;50.802;4.336;2023-12-04T14:53:02;5.30;99.90
14471;DHT22;7321;50.802;4.336;2023-12-04T14:55:48;5.40;99.90
14471;DHT22;7321;50.802;4.336;2023-12-04T14:58:43;5.40;99.90
14471;DHT22;7321;50.802;4.336;2023-12-04T15:01:10;5.40;99.90
14471;DHT22;7321;50.802;4.336;2023-12-04T15:03:36;5.30;99.90
14471;DHT22;7321;50.802;4.336;2023-12-04T15:06:34;5.30;99.90
14471;DHT22;7321;50.802;4.336;2023-12-04T15:09:38;5.30;99.90
14471;DHT22;7321;50.802;4.336;2023-12-04T15:12:04;5.40;99.90
14471;DHT22;7321;50.802;4.336;2023-12-04T15:14:36;5.50;99.90
14471;DHT22;7321;50.802;4.336;2023-12-04T15:17:21;5.60;99.90
14471;DHT22;7321;50.802;4.336;2023-12-04T15:20:10;5.70;99.90
14471;DHT22;7321;50.802;4.336;2023-12-04T15:22:36;5.50;99.90
14471;DHT22;7321;50.802;4.336;2023-12-04T15:25:05;5.50;99.90
14471;DHT22;7321;50.802;4.336;2023-12-04T15:27:39;5.50;99.90
14471;DHT22;7321;50.802;4.336;2023-12-04T15:30:05;5.40;99.90
14471;DHT22;7321;50.802;4.336;2023-12-04T15:32:33;5.40;99.90
14471;DHT22;7321;50.802;4.336;2023-12-04T15:34:59;5.50;99.90
14471;DHT22;7321;50.802;4.336;2023-12-04T15:37:25;5.50;99.90
14471;DHT22;7321;50.802;4.336;2023-12-04T15:39:51;5.60;99.90
14471;DHT22;7321;50.802;4.336;2023-12-04T15:42:17;5.70;99.90
14471;DHT22;7321;50.802;4.336;2023-12-04T15:44:43;5.90;99.90
14471;DHT22;7321;50.802;4.336;2023-12-04T15:47:10;6.10;99.90
14471;DHT22;7321;50.802;4.336;2023-12-04T15:49:35;6.00;99.90
14471;DHT22;7321;50.802;4.336;2023-12-04T15:52:01;6.00;99.90
14471;DHT22;7321;50.802;4.336;2023-12-04T15:54:29;6.10;99.90
14471;DHT22;7321;50.802;4.336;2023-12-04T15:56:59;5.80;99.90
14471;DHT22;7321;50.802;4.336;2023-12-04T15:59:26;5.80;99.90
14471;DHT22;7321;50.802;4.336;2023-12-04T16:01:52;5.80;99.90
14471;DHT22;7321;50.802;4.336;2023-12-04T16:04:17;5.80;99.90
14471;DHT22;7321;50.802;4.336;2023-12-04T16:06:43;5.90;99.90